DIEEN EBAW-EDXW
Flight info
| Callsign | DIEEN |
|---|---|
| Flight time | N/A |
| Altitude | 28000 |
| Route | NIK L191 VICOT N873 SPY/N0331F370 N873 HUNQI DCT ROCZO DCT FUFNA DCT OLDIP |
| Aircraft | C510/L-VGDW/C |
Departure
| Time | 2026-04-29 15:17 |
|---|---|
| Airport | Antwerp International Airport (Deurne) (EBAW) |
Arrival
| Time | N/A |
|---|---|
| Airport | Westerland Sylt Airport (EDXW) |
| Time | Latitude | Longitude | Altitude | Speed | Heading |
|---|---|---|---|---|---|
| 2026-04-29 14:40 | 51.18830 | 4.45306 | 34 ft | 0 kts | 328° |
| 2026-04-29 15:09 | 51.18832 | 4.45305 | 34 ft | 1 kts | 328° |
| 2026-04-29 15:10 | 51.18848 | 4.45290 | 34 ft | 0 kts | 330° |
| 2026-04-29 15:10 | 51.18861 | 4.45289 | 33 ft | 4 kts | 30° |
| 2026-04-29 15:10 | 51.18883 | 4.45360 | 33 ft | 2 kts | 47° |
| 2026-04-29 15:10 | 51.18923 | 4.45369 | 32 ft | 9 kts | 0° |
| 2026-04-29 15:11 | 51.18966 | 4.45434 | 31 ft | 1 kts | 53° |
| 2026-04-29 15:11 | 51.18967 | 4.45435 | 31 ft | 0 kts | 54° |
| 2026-04-29 15:16 | 51.18990 | 4.45486 | 31 ft | 12 kts | 54° |
| 2026-04-29 15:16 | 51.19032 | 4.45588 | 28 ft | 1 kts | 59° |
| 2026-04-29 15:16 | 51.19056 | 4.45621 | 27 ft | 6 kts | 36° |
| 2026-04-29 15:16 | 51.19108 | 4.45715 | 27 ft | 17 kts | 65° |
| 2026-04-29 15:17 | 51.19073 | 4.45972 | 27 ft | 40 kts | 108° |
| 2026-04-29 15:17 | 51.18869 | 4.46821 | 86 ft | 107 kts | 109° |
| 2026-04-29 15:17 | 51.18561 | 4.48005 | 620 ft | 124 kts | 106° |
| 2026-04-29 15:17 | 51.18199 | 4.49362 | 1230 ft | 155 kts | 108° |
| 2026-04-29 15:18 | 51.17734 | 4.50969 | 2156 ft | 163 kts | 115° |
| 2026-04-29 15:18 | 51.17063 | 4.52317 | 3221 ft | 160 kts | 129° |
| 2026-04-29 15:18 | 51.16079 | 4.53311 | 3900 ft | 185 kts | 153° |
| 2026-04-29 15:18 | 51.14744 | 4.53626 | 4543 ft | 209 kts | 173° |
| 2026-04-29 15:19 | 51.13275 | 4.53101 | 5173 ft | 233 kts | 198° |
| 2026-04-29 15:19 | 51.11960 | 4.51471 | 5805 ft | 253 kts | 227° |
| 2026-04-29 15:19 | 51.11216 | 4.48874 | 6439 ft | 266 kts | 258° |
| 2026-04-29 15:19 | 51.11301 | 4.45956 | 7073 ft | 271 kts | 279° |
| 2026-04-29 15:20 | 51.11438 | 4.42962 | 7697 ft | 275 kts | 273° |
| 2026-04-29 15:20 | 51.11692 | 4.39933 | 8315 ft | 277 kts | 287° |
| 2026-04-29 15:20 | 51.12338 | 4.37081 | 8941 ft | 277 kts | 291° |
| 2026-04-29 15:20 | 51.12974 | 4.34168 | 9567 ft | 278 kts | 292° |
| 2026-04-29 15:21 | 51.13621 | 4.31320 | 10175 ft | 278 kts | 292° |
| 2026-04-29 15:21 | 51.14265 | 4.28435 | 10790 ft | 278 kts | 292° |
| 2026-04-29 15:21 | 51.14914 | 4.25531 | 11406 ft | 277 kts | 292° |
| 2026-04-29 15:21 | 51.15549 | 4.22671 | 12013 ft | 276 kts | 292° |
| 2026-04-29 15:22 | 51.16267 | 4.19851 | 12624 ft | 272 kts | 306° |
| 2026-04-29 15:22 | 51.17652 | 4.18021 | 13226 ft | 255 kts | 343° |
| 2026-04-29 15:22 | 51.19301 | 4.17253 | 13878 ft | 250 kts | 349° |
| 2026-04-29 15:22 | 51.20970 | 4.16514 | 14515 ft | 247 kts | 351° |
| 2026-04-29 15:23 | 51.22609 | 4.15834 | 15130 ft | 245 kts | 350° |
| 2026-04-29 15:23 | 51.24248 | 4.15149 | 15753 ft | 242 kts | 350° |
| 2026-04-29 15:23 | 51.25855 | 4.14474 | 16356 ft | 240 kts | 350° |
| 2026-04-29 15:23 | 51.27446 | 4.13805 | 16960 ft | 237 kts | 349° |
| 2026-04-29 15:24 | 51.29035 | 4.13140 | 17503 ft | 243 kts | 349° |
| 2026-04-29 15:24 | 51.30705 | 4.12440 | 18012 ft | 253 kts | 349° |
| 2026-04-29 15:24 | 51.32427 | 4.11712 | 18530 ft | 262 kts | 349° |
| 2026-04-29 15:24 | 51.33933 | 4.11076 | 18974 ft | 268 kts | 349° |
| 2026-04-29 15:25 | 51.34005 | 4.11045 | 18995 ft | 268 kts | 349° |
| 2026-04-29 15:25 | 51.35554 | 4.10391 | 19423 ft | 274 kts | 349° |
| 2026-04-29 15:25 | 51.37400 | 4.09612 | 19944 ft | 279 kts | 349° |
| 2026-04-29 15:25 | 51.39273 | 4.08819 | 20459 ft | 283 kts | 350° |
| 2026-04-29 15:26 | 51.41202 | 4.08002 | 20991 ft | 286 kts | 349° |
| 2026-04-29 15:26 | 51.43124 | 4.07193 | 21510 ft | 289 kts | 350° |
| 2026-04-29 15:26 | 51.45063 | 4.06367 | 22037 ft | 291 kts | 350° |
| 2026-04-29 15:26 | 51.47021 | 4.05557 | 22564 ft | 291 kts | 353° |
| 2026-04-29 15:27 | 51.48974 | 4.05682 | 23059 ft | 279 kts | 23° |
| 2026-04-29 15:27 | 51.50693 | 4.06954 | 23600 ft | 277 kts | 28° |
| 2026-04-29 15:27 | 51.52459 | 4.08219 | 24129 ft | 277 kts | 29° |
| 2026-04-29 15:27 | 51.54181 | 4.09505 | 24650 ft | 277 kts | 29° |
| 2026-04-29 15:28 | 51.55932 | 4.10801 | 25187 ft | 276 kts | 29° |
| 2026-04-29 15:28 | 51.57089 | 4.11662 | 25542 ft | 276 kts | 29° |
| 2026-04-29 15:28 | 51.59389 | 4.13369 | 26247 ft | 275 kts | 30° |
| 2026-04-29 15:28 | 51.61111 | 4.14649 | 26763 ft | 274 kts | 30° |
| 2026-04-29 15:29 | 51.62853 | 4.15945 | 27251 ft | 275 kts | 30° |
| 2026-04-29 15:29 | 51.66305 | 4.18512 | 28209 ft | 274 kts | 30° |
| 2026-04-29 15:30 | 51.69844 | 4.21160 | 28328 ft | 287 kts | 30° |
| 2026-04-29 15:30 | 51.71683 | 4.22536 | 28335 ft | 291 kts | 30° |
| 2026-04-29 15:30 | 51.73538 | 4.23925 | 28333 ft | 296 kts | 30° |
| 2026-04-29 15:30 | 51.75429 | 4.25340 | 28333 ft | 299 kts | 30° |
| 2026-04-29 15:31 | 51.77318 | 4.26757 | 28332 ft | 302 kts | 30° |
| 2026-04-29 15:31 | 51.81190 | 4.29663 | 28336 ft | 310 kts | 29° |
| 2026-04-29 15:32 | 51.85123 | 4.32620 | 28337 ft | 317 kts | 29° |
| 2026-04-29 15:32 | 51.89180 | 4.35673 | 28352 ft | 325 kts | 29° |
| 2026-04-29 15:33 | 51.93324 | 4.38807 | 28346 ft | 334 kts | 29° |
| 2026-04-29 15:33 | 51.97570 | 4.42039 | 28355 ft | 339 kts | 29° |
| 2026-04-29 15:34 | 52.01846 | 4.45310 | 28358 ft | 342 kts | 29° |
| 2026-04-29 15:34 | 52.06128 | 4.48598 | 28357 ft | 343 kts | 29° |
| 2026-04-29 15:35 | 52.10464 | 4.51940 | 28356 ft | 344 kts | 29° |
| 2026-04-29 15:35 | 52.14778 | 4.55277 | 28367 ft | 344 kts | 30° |
| 2026-04-29 15:36 | 52.19059 | 4.58591 | 28323 ft | 333 kts | 29° |
| 2026-04-29 15:36 | 52.23138 | 4.61729 | 28331 ft | 318 kts | 29° |
| 2026-04-29 15:37 | 52.27066 | 4.64737 | 28333 ft | 308 kts | 29° |
| 2026-04-29 15:37 | 52.30910 | 4.67675 | 28343 ft | 301 kts | 30° |
| 2026-04-29 15:37 | 52.32789 | 4.69110 | 28349 ft | 299 kts | 30° |
| 2026-04-29 15:38 | 52.34655 | 4.70536 | 28351 ft | 297 kts | 30° |
| 2026-04-29 15:38 | 52.36536 | 4.71973 | 28348 ft | 295 kts | 30° |
| 2026-04-29 15:38 | 52.38391 | 4.73391 | 28352 ft | 294 kts | 30° |
| 2026-04-29 15:38 | 52.40224 | 4.74794 | 28355 ft | 293 kts | 30° |
| 2026-04-29 15:39 | 52.42080 | 4.76215 | 28353 ft | 294 kts | 30° |
| 2026-04-29 15:39 | 52.43933 | 4.77633 | 28358 ft | 299 kts | 30° |
| 2026-04-29 15:39 | 52.45829 | 4.79096 | 28369 ft | 308 kts | 30° |
| 2026-04-29 15:40 | 52.49796 | 4.82186 | 28367 ft | 321 kts | 30° |
| 2026-04-29 15:40 | 52.53908 | 4.85417 | 28370 ft | 330 kts | 30° |
| 2026-04-29 15:41 | 52.57435 | 4.89960 | 28367 ft | 327 kts | 62° |
| 2026-04-29 15:41 | 52.58026 | 4.93553 | 28367 ft | 331 kts | 85° |
| 2026-04-29 15:41 | 52.57606 | 4.97311 | 28365 ft | 342 kts | 108° |
| 2026-04-29 15:41 | 52.56233 | 5.00543 | 28363 ft | 357 kts | 130° |
| 2026-04-29 15:42 | 52.54075 | 5.02728 | 28364 ft | 375 kts | 153° |
| 2026-04-29 15:42 | 52.51457 | 5.03432 | 28360 ft | 391 kts | 175° |
| 2026-04-29 15:42 | 52.48744 | 5.02476 | 28358 ft | 405 kts | 198° |
| 2026-04-29 15:42 | 52.46365 | 4.99955 | 28358 ft | 414 kts | 220° |
| 2026-04-29 15:43 | 52.44631 | 4.96159 | 28358 ft | 418 kts | 243° |
| 2026-04-29 15:43 | 52.43807 | 4.91682 | 28352 ft | 416 kts | 265° |
| 2026-04-29 15:43 | 52.43976 | 4.87003 | 28350 ft | 408 kts | 287° |
| 2026-04-29 15:43 | 52.45144 | 4.82893 | 28352 ft | 394 kts | 312° |
| 2026-04-29 15:44 | 52.47150 | 4.80010 | 28353 ft | 378 kts | 337° |
| 2026-04-29 15:44 | 52.49614 | 4.78825 | 28353 ft | 360 kts | 2° |
| 2026-04-29 15:44 | 52.52005 | 4.79447 | 28372 ft | 347 kts | 23° |
| 2026-04-29 15:45 | 52.56553 | 4.82037 | 28356 ft | 344 kts | 28° |
| 2026-04-29 15:45 | 52.58510 | 4.84198 | 28375 ft | 338 kts | 43° |
| 2026-04-29 15:45 | 52.60257 | 4.86829 | 28370 ft | 335 kts | 46° |
| 2026-04-29 15:46 | 52.63384 | 4.92321 | 28355 ft | 327 kts | 50° |
| 2026-04-29 15:46 | 52.66393 | 4.97915 | 28352 ft | 325 kts | 50° |
| 2026-04-29 15:47 | 52.69372 | 5.03529 | 28358 ft | 325 kts | 50° |
| 2026-04-29 15:47 | 52.72351 | 5.09157 | 28357 ft | 324 kts | 51° |
| 2026-04-29 15:48 | 52.75296 | 5.14746 | 28373 ft | 324 kts | 51° |
| 2026-04-29 15:48 | 52.78249 | 5.20358 | 28377 ft | 324 kts | 50° |
| 2026-04-29 15:49 | 52.81198 | 5.25980 | 28382 ft | 324 kts | 50° |
| 2026-04-29 15:49 | 52.84152 | 5.31621 | 28388 ft | 323 kts | 50° |
| 2026-04-29 15:50 | 52.87087 | 5.37232 | 28380 ft | 323 kts | 50° |
| 2026-04-29 15:50 | 52.90054 | 5.42795 | 28378 ft | 323 kts | 48° |
| 2026-04-29 15:51 | 52.93108 | 5.48266 | 28373 ft | 323 kts | 48° |
| 2026-04-29 15:51 | 52.96153 | 5.53722 | 28377 ft | 322 kts | 48° |
| 2026-04-29 15:52 | 52.99197 | 5.59192 | 28385 ft | 322 kts | 48° |
| 2026-04-29 15:52 | 53.02237 | 5.64667 | 28381 ft | 321 kts | 48° |
| 2026-04-29 15:53 | 53.05268 | 5.70132 | 28390 ft | 321 kts | 49° |
| 2026-04-29 15:53 | 53.08276 | 5.75566 | 28392 ft | 321 kts | 49° |
| 2026-04-29 15:54 | 53.11042 | 5.80581 | 28403 ft | 321 kts | 49° |
| 2026-04-29 15:54 | 53.14017 | 5.85982 | 28401 ft | 321 kts | 49° |
| 2026-04-29 15:55 | 53.17041 | 5.91486 | 28405 ft | 321 kts | 49° |
| 2026-04-29 15:55 | 53.20065 | 5.96996 | 28410 ft | 321 kts | 49° |
| 2026-04-29 15:56 | 53.23077 | 6.02503 | 28405 ft | 321 kts | 49° |
| 2026-04-29 15:56 | 53.26083 | 6.08009 | 28411 ft | 321 kts | 49° |
| 2026-04-29 15:57 | 53.29087 | 6.13520 | 28415 ft | 321 kts | 49° |
| 2026-04-29 15:57 | 53.32101 | 6.19070 | 28411 ft | 321 kts | 49° |
| 2026-04-29 15:58 | 53.35081 | 6.24569 | 28419 ft | 320 kts | 48° |
| 2026-04-29 15:58 | 53.38087 | 6.30121 | 28427 ft | 320 kts | 48° |
| 2026-04-29 15:59 | 53.41061 | 6.35627 | 28423 ft | 320 kts | 48° |
| 2026-04-29 15:59 | 53.44036 | 6.41157 | 28425 ft | 320 kts | 48° |
| 2026-04-29 16:00 | 53.47014 | 6.46692 | 28436 ft | 319 kts | 48° |
| 2026-04-29 16:00 | 53.49998 | 6.52265 | 28437 ft | 319 kts | 48° |
| 2026-04-29 16:01 | 53.52963 | 6.57812 | 28437 ft | 319 kts | 48° |
| 2026-04-29 16:01 | 53.55931 | 6.63371 | 28442 ft | 319 kts | 48° |
| 2026-04-29 16:02 | 53.58856 | 6.68866 | 28443 ft | 319 kts | 49° |
| 2026-04-29 16:02 | 53.61807 | 6.74413 | 28443 ft | 319 kts | 49° |
| 2026-04-29 16:03 | 53.64751 | 6.79971 | 28447 ft | 319 kts | 49° |
| 2026-04-29 16:03 | 53.67699 | 6.85539 | 28455 ft | 319 kts | 48° |
| 2026-04-29 16:04 | 53.70646 | 6.91130 | 28447 ft | 319 kts | 48° |
| 2026-04-29 16:04 | 53.73605 | 6.96745 | 28441 ft | 318 kts | 48° |
| 2026-04-29 16:05 | 53.76557 | 7.02368 | 28436 ft | 318 kts | 48° |
| 2026-04-29 16:05 | 53.79530 | 7.08041 | 28440 ft | 318 kts | 49° |
| 2026-04-29 16:06 | 53.82467 | 7.13663 | 28438 ft | 318 kts | 48° |
| 2026-04-29 16:06 | 53.85395 | 7.19273 | 28438 ft | 318 kts | 48° |
| 2026-04-29 16:07 | 53.88313 | 7.24880 | 28440 ft | 318 kts | 48° |
| 2026-04-29 16:07 | 53.91238 | 7.30516 | 28441 ft | 317 kts | 48° |
| 2026-04-29 16:08 | 53.94161 | 7.36147 | 28440 ft | 317 kts | 48° |
| 2026-04-29 16:08 | 53.97057 | 7.41757 | 28443 ft | 317 kts | 48° |
| 2026-04-29 16:09 | 53.99973 | 7.47410 | 28440 ft | 317 kts | 48° |